Arrowsmith, Illinois
Current Conditions -  °F | °C
As of 5:56 AM on Friday 24 Oct 2014 (Local Time) from KBMI Reporting Station
Few Clouds Few Clouds  
Wind Chill: 47°   Ceiling: Unl
Heat Index: 49°   Visibility: 10mi
Dew Point: 46°   Wind: 5mph
Humidity: 89%   Direction: 230°SW
Pressure: 30.08"   Gusts: NA
Location:  40.45°N, 88.63°W
Report Text: KBMI 241056Z 23004KT 10SM FEW046 09/08 A3008 RMK AO2 T00940077 SLP187
Loading
Personal Weather Stations






























Interactive Weather Map New forecast layout! Learn more

10-Day Weather Forecast

Advertisements
Track Severe Weather on mobile